Time;durP1;ratioP1;P1;durP2;ratioP2;P2;SDS_P1;SDS_P2;PMS_P1;PMS_P2;Temp;Humidity;BMP_temperature;BMP_pressure;BME280_temperature;BME280_humidity;BME280_pressure;Samples;Min_cycle;Max_cycle;Signal;HPM_P1;HPM_P2
2022/02/05 00:02:15;;;;;;;1.80;1.70;;;14.30;56.90;;;;;;5126978;28;20486;-83
2022/02/05 00:04:46;;;;;;;1.40;1.20;;;14.30;56.90;;;;;;5130704;28;20467;-82
2022/02/05 00:07:15;;;;;;;2.20;1.53;;;14.20;56.80;;;;;;5130773;28;20432;-82
2022/02/05 00:10:01;;;;;;;3.50;1.40;;;14.30;56.80;;;;;;5130955;28;20428;-81
2022/02/05 00:12:44;;;;;;;4.10;1.50;;;14.20;56.70;;;;;;5123538;28;20448;-82
2022/02/05 00:15:28;;;;;;;1.60;1.33;;;14.30;56.70;;;;;;5130681;28;20466;-82
2022/02/05 00:40:31;;;;;;;3.03;1.60;;;14.10;56.60;;;;;;5038548;28;20514;-84
2022/02/05 00:42:59;;;;;;;1.60;1.50;;;14.20;56.80;;;;;;5109932;28;20439;-84
2022/02/05 00:45:28;;;;;;;3.77;1.80;;;14.20;56.90;;;;;;5122424;28;20504;-86
2022/02/05 00:47:59;;;;;;;2.93;1.37;;;14.20;56.60;;;;;;5124898;28;20439;-86
2022/02/05 00:50:30;;;;;;;2.93;1.80;;;14.20;56.60;;;;;;5124511;28;20436;-87
2022/02/05 00:53:02;;;;;;;1.60;1.50;;;14.20;56.50;;;;;;5116423;28;20436;-85
2022/02/05 00:55:34;;;;;;;2.40;1.83;;;14.20;56.50;;;;;;5122869;28;20513;-85
2022/02/05 00:58:03;;;;;;;3.10;1.50;;;14.20;56.60;;;;;;5121884;28;20521;-86
2022/02/05 01:00:31;;;;;;;1.90;1.50;;;14.20;56.50;;;;;;5118659;28;20868;-87
2022/02/05 01:02:59;;;;;;;3.27;1.57;;;14.20;56.50;;;;;;5119736;28;20443;-83
2022/02/05 01:05:27;;;;;;;2.97;1.40;;;14.20;56.60;;;;;;5112048;28;20542;-84
2022/02/05 01:07:56;;;;;;;6.73;1.83;;;14.20;56.50;;;;;;5115890;28;20441;-85
2022/02/05 01:10:26;;;;;;;1.63;1.33;;;14.20;56.60;;;;;;5113586;28;20577;-84
2022/02/05 01:12:58;;;;;;;1.97;1.70;;;14.20;56.70;;;;;;5114964;28;20445;-84
2022/02/05 01:15:32;;;;;;;4.00;1.97;;;14.20;56.60;;;;;;5114850;28;20467;-83
2022/02/05 01:18:03;;;;;;;1.40;1.30;;;14.20;56.70;;;;;;5110429;28;20939;-83
2022/02/05 01:21:04;;;;;;;1.73;1.53;;;14.20;56.50;;;;;;5118071;28;20468;-83
2022/02/05 01:23:39;;;;;;;3.97;1.50;;;14.20;56.60;;;;;;5110826;28;20460;-82
2022/02/05 01:26:17;;;;;;;1.77;1.50;;;14.20;56.50;;;;;;5118959;28;20499;-82
2022/02/05 01:28:49;;;;;;;2.57;1.50;;;14.20;56.80;;;;;;5118609;28;20530;-82
2022/02/05 01:31:18;;;;;;;3.47;1.60;;;14.10;56.60;;;;;;5117504;28;20526;-83
2022/02/05 01:33:55;;;;;;;3.23;1.70;;;14.10;56.60;;;;;;5110847;28;20466;-83
2022/02/05 01:50:40;;;;;;;2.87;1.40;;;14.00;56.60;;;;;;5118931;28;20447;-82
2022/02/05 01:53:20;;;;;;;3.33;1.50;;;14.00;56.80;;;;;;5117903;28;20485;-83
2022/02/05 01:55:59;;;;;;;3.30;1.60;;;14.00;56.70;;;;;;5120433;28;20435;-82
2022/02/05 01:58:40;;;;;;;2.03;1.57;;;14.00;56.70;;;;;;5116220;28;20515;-82
2022/02/05 02:07:04;;;;;;;4.00;1.70;;;14.10;56.50;;;;;;5107038;28;20539;-81
2022/02/05 02:09:51;;;;;;;8.03;2.17;;;14.00;56.50;;;;;;5091574;28;20531;-81
2022/02/05 02:12:22;;;;;;;2.80;1.70;;;14.10;56.60;;;;;;5114784;28;20462;-83
2022/02/05 02:14:59;;;;;;;2.73;1.50;;;14.10;56.60;;;;;;5112427;28;20478;-84
2022/02/05 02:20:30;;;;;;;2.30;1.30;;;14.00;56.70;;;;;;5114818;28;20508;-81
2022/02/05 02:23:11;;;;;;;3.37;1.60;;;14.10;56.70;;;;;;5114242;28;20450;-82
2022/02/05 02:25:53;;;;;;;6.63;1.77;;;14.10;56.70;;;;;;5114849;28;20488;-82
2022/02/05 02:28:26;;;;;;;3.93;1.70;;;14.10;56.60;;;;;;5115145;28;20490;-82
2022/02/05 02:31:01;;;;;;;2.23;2.03;;;14.10;56.60;;;;;;5115364;28;20451;-82
2022/02/05 02:33:33;;;;;;;4.40;1.73;;;14.10;56.70;;;;;;5114019;28;20419;-82
2022/02/05 02:36:01;;;;;;;2.70;1.67;;;14.10;56.80;;;;;;5117692;28;20487;-82
2022/02/05 02:38:44;;;;;;;4.47;1.60;;;14.10;56.60;;;;;;5116204;28;20432;-82
2022/02/05 02:41:17;;;;;;;2.20;1.80;;;14.10;56.70;;;;;;5118004;28;20460;-82
2022/02/05 02:43:45;;;;;;;1.60;1.40;;;14.00;56.70;;;;;;5117109;28;20464;-82
2022/02/05 02:46:13;;;;;;;3.27;1.60;;;14.10;56.70;;;;;;5118541;28;20519;-81
2022/02/05 02:48:44;;;;;;;3.90;1.67;;;14.00;56.80;;;;;;5118287;28;20468;-82
2022/02/05 02:56:52;;;;;;;2.87;1.97;;;14.00;56.70;;;;;;5111968;28;20768;-82
2022/02/05 02:59:26;;;;;;;2.73;1.70;;;14.00;56.80;;;;;;5115939;28;20456;-82
2022/02/05 03:02:00;;;;;;;6.27;1.90;;;14.00;57.10;;;;;;5114499;28;20475;-82
2022/02/05 03:04:28;;;;;;;2.70;1.70;;;14.10;56.90;;;;;;5118218;28;20502;-82
2022/02/05 03:06:56;;;;;;;2.90;1.60;;;14.00;56.80;;;;;;5118277;28;20474;-82
2022/02/05 03:09:25;;;;;;;2.97;1.80;;;14.10;56.80;;;;;;5118581;28;20518;-82
2022/02/05 03:11:53;;;;;;;3.23;1.80;;;14.10;56.70;;;;;;5117988;28;20452;-82
2022/02/05 03:14:21;;;;;;;3.63;1.60;;;14.10;56.80;;;;;;5113867;28;20550;-82
2022/02/05 03:16:52;;;;;;;4.10;1.90;;;14.10;56.70;;;;;;5117779;28;20525;-81
2022/02/05 03:19:19;;;;;;;4.10;1.80;;;14.10;56.90;;;;;;5117858;28;20443;-82
2022/02/05 03:21:47;;;;;;;5.03;1.90;;;14.10;56.80;;;;;;5117249;28;20562;-82
2022/02/05 03:24:15;;;;;;;2.93;1.60;;;14.10;56.80;;;;;;5118226;28;20460;-82
2022/02/05 03:26:44;;;;;;;4.37;1.83;;;14.10;56.80;;;;;;5117826;28;20490;-82
2022/02/05 03:29:13;;;;;;;3.43;1.80;;;14.10;56.70;;;;;;5112088;28;20452;-82
2022/02/05 03:31:41;;;;;;;3.77;1.67;;;14.00;56.60;;;;;;5118202;28;20447;-82
2022/02/05 03:34:08;;;;;;;2.67;1.37;;;14.00;56.60;;;;;;5117695;28;20488;-82
2022/02/05 03:36:41;;;;;;;5.27;1.73;;;14.00;56.90;;;;;;5117930;28;20468;-82
2022/02/05 03:39:09;;;;;;;2.60;1.70;;;14.00;56.80;;;;;;5117831;28;20518;-82
2022/02/05 03:41:37;;;;;;;4.03;1.73;;;14.00;56.60;;;;;;5118441;28;20510;-82
2022/02/05 03:44:06;;;;;;;4.23;1.40;;;14.00;56.70;;;;;;5118950;28;20440;-82
2022/02/05 03:46:34;;;;;;;3.97;1.80;;;14.00;56.80;;;;;;5116755;28;20448;-82
2022/02/05 03:49:02;;;;;;;4.57;1.87;;;14.00;56.60;;;;;;5118645;28;20439;-82
2022/02/05 03:51:30;;;;;;;4.37;1.67;;;14.00;56.70;;;;;;5118960;28;20463;-82
2022/02/05 03:53:58;;;;;;;4.53;1.90;;;14.00;56.70;;;;;;5119029;28;20440;-82
2022/02/05 03:56:26;;;;;;;3.33;1.53;;;14.00;56.70;;;;;;5114578;28;20448;-82
2022/02/05 03:58:54;;;;;;;2.03;1.43;;;14.00;56.70;;;;;;5117713;28;20428;-82
2022/02/05 04:01:23;;;;;;;2.97;1.57;;;14.00;56.60;;;;;;5108345;28;20496;-82
2022/02/05 04:03:51;;;;;;;5.10;1.80;;;14.00;56.60;;;;;;5101424;28;20496;-82
2022/02/05 04:06:19;;;;;;;3.17;1.50;;;14.00;56.60;;;;;;5118505;28;20444;-81
2022/02/05 04:08:48;;;;;;;3.27;1.70;;;14.00;56.60;;;;;;5137931;28;20463;-82
2022/02/05 04:11:29;;;;;;;3.50;1.50;;;14.00;56.60;;;;;;5127677;28;20509;-81
2022/02/05 04:16:44;;;;;;;8.20;2.33;;;14.00;56.50;;;;;;5112912;28;20444;-81
2022/02/05 04:19:11;;;;;;;2.50;1.83;;;14.00;56.60;;;;;;5096196;28;20421;-81
2022/02/05 04:21:39;;;;;;;3.77;1.40;;;14.00;56.50;;;;;;5098491;28;20573;-81
2022/02/05 04:24:07;;;;;;;2.57;1.63;;;14.00;56.60;;;;;;5115492;28;20483;-81
2022/02/05 04:26:35;;;;;;;3.70;1.33;;;14.00;56.50;;;;;;5112272;28;20471;-81
2022/02/05 04:29:06;;;;;;;3.10;1.70;;;14.00;56.80;;;;;;5115816;28;20467;-81
2022/02/05 04:31:34;;;;;;;2.77;1.57;;;14.00;56.70;;;;;;5115834;28;20454;-81
2022/02/05 04:34:03;;;;;;;2.70;1.70;;;14.00;56.70;;;;;;5115745;28;20550;-81
2022/02/05 04:36:31;;;;;;;10.03;1.80;;;14.00;56.60;;;;;;5115764;28;20463;-81
2022/02/05 04:39:06;;;;;;;7.70;2.30;;;14.00;56.70;;;;;;5113153;28;20455;-81
2022/02/05 04:41:41;;;;;;;5.90;1.90;;;14.00;56.80;;;;;;5115015;28;20534;-81
2022/02/05 04:44:22;;;;;;;2.40;1.57;;;14.00;56.80;;;;;;5116108;28;20467;-81
2022/02/05 04:55:28;;;;;;;4.33;1.70;;;14.00;56.70;;;;;;5119608;28;20483;-81
2022/02/05 04:58:07;;;;;;;4.67;2.00;;;14.00;56.70;;;;;;5108714;28;20527;-81
2022/02/05 05:00:55;;;;;;;4.53;1.70;;;14.00;56.70;;;;;;5117587;28;20926;-81
2022/02/05 05:03:39;;;;;;;3.37;1.97;;;13.90;56.60;;;;;;5098811;28;20564;-81
2022/02/05 05:06:31;;;;;;;5.67;1.80;;;14.00;56.80;;;;;;5098950;28;20504;-81
2022/02/05 05:09:13;;;;;;;3.33;1.77;;;14.00;56.70;;;;;;5099843;28;20456;-81
2022/02/05 05:11:51;;;;;;;8.03;2.03;;;14.00;56.80;;;;;;5099167;28;20460;-81
2022/02/05 05:19:50;;;;;;;3.43;1.90;;;13.90;56.80;;;;;;5119571;28;20927;-81
2022/02/05 05:22:19;;;;;;;3.00;1.80;;;13.90;56.80;;;;;;5119249;28;20566;-81
2022/02/05 05:24:47;;;;;;;5.93;1.67;;;13.90;56.90;;;;;;5119409;28;20551;-81
2022/02/05 05:27:15;;;;;;;3.27;1.67;;;13.90;56.80;;;;;;5118793;28;20479;-81
2022/02/05 05:29:42;;;;;;;9.00;2.23;;;13.90;56.70;;;;;;5119182;28;20474;-81
2022/02/05 05:32:10;;;;;;;4.73;2.07;;;13.90;56.70;;;;;;5117262;28;20866;-81
2022/02/05 05:34:38;;;;;;;2.97;1.53;;;13.90;56.70;;;;;;5113392;28;20483;-81
2022/02/05 05:37:06;;;;;;;3.47;1.60;;;13.90;56.70;;;;;;5118089;28;20444;-81
2022/02/05 05:39:38;;;;;;;2.70;1.40;;;13.90;56.80;;;;;;5118254;28;20511;-81
2022/02/05 05:42:11;;;;;;;2.20;1.77;;;13.90;56.60;;;;;;5118271;28;20499;-81
2022/02/05 05:44:58;;;;;;;2.80;1.77;;;13.90;56.70;;;;;;5118075;28;20494;-81
2022/02/05 05:47:49;;;;;;;4.43;1.90;;;13.90;56.80;;;;;;5112038;28;20437;-81
2022/02/05 05:52:58;;;;;;;3.20;1.77;;;13.90;56.80;;;;;;5102927;28;20528;-81
2022/02/05 05:55:29;;;;;;;4.40;1.50;;;13.90;56.70;;;;;;5097535;28;20461;-81
2022/02/05 05:57:57;;;;;;;3.80;1.53;;;13.90;56.80;;;;;;5097374;28;20420;-81
2022/02/05 06:00:25;;;;;;;2.90;1.60;;;13.90;56.80;;;;;;5097657;28;20432;-81
2022/02/05 06:02:53;;;;;;;5.27;2.10;;;14.00;56.90;;;;;;5097079;28;20496;-82
2022/02/05 06:05:21;;;;;;;5.50;1.60;;;14.00;56.80;;;;;;5097437;28;20471;-81
2022/02/05 06:07:48;;;;;;;7.50;1.90;;;14.00;56.80;;;;;;5109628;28;20448;-81
2022/02/05 06:10:16;;;;;;;3.77;2.00;;;14.00;56.70;;;;;;5117912;28;20424;-81
2022/02/05 06:12:45;;;;;;;4.90;1.40;;;13.90;56.80;;;;;;5117691;28;20436;-81
2022/02/05 06:15:13;;;;;;;2.40;1.70;;;13.90;56.70;;;;;;5117551;28;20475;-81
2022/02/05 06:17:41;;;;;;;5.43;1.80;;;13.90;56.70;;;;;;5118083;28;20471;-81
2022/02/05 06:20:09;;;;;;;5.80;2.00;;;13.90;56.90;;;;;;5117859;28;20464;-81
2022/02/05 06:22:37;;;;;;;4.67;1.73;;;13.80;56.90;;;;;;5116623;28;20475;-81
2022/02/05 06:25:07;;;;;;;3.63;1.90;;;13.90;56.90;;;;;;5116574;28;20507;-81
2022/02/05 06:27:34;;;;;;;2.90;1.60;;;13.90;57.00;;;;;;5118007;28;20535;-81
2022/02/05 06:30:04;;;;;;;6.73;2.40;;;13.80;56.60;;;;;;5118515;28;20436;-81
2022/02/05 06:32:32;;;;;;;4.40;1.90;;;13.80;57.20;;;;;;5118199;28;20443;-81
2022/02/05 06:35:00;;;;;;;2.00;1.70;;;13.80;56.90;;;;;;5116986;28;20487;-81
2022/02/05 06:37:27;;;;;;;3.80;1.90;;;13.80;56.80;;;;;;5114648;28;20490;-81
2022/02/05 06:39:55;;;;;;;2.50;1.67;;;13.80;56.70;;;;;;5117523;28;20508;-81
2022/02/05 06:42:23;;;;;;;4.07;2.07;;;13.80;56.80;;;;;;5098698;28;20569;-81
2022/02/05 06:44:51;;;;;;;2.60;1.43;;;13.80;56.90;;;;;;5112286;28;20469;-81
2022/02/05 06:47:20;;;;;;;2.20;1.60;;;13.80;56.70;;;;;;5117442;28;20452;-81
2022/02/05 06:49:48;;;;;;;3.17;1.60;;;13.70;57.30;;;;;;5110765;28;20484;-81
2022/02/05 06:52:15;;;;;;;3.10;1.80;;;13.70;56.60;;;;;;5116310;28;20475;-81
2022/02/05 06:54:43;;;;;;;3.47;1.60;;;13.70;56.60;;;;;;5105634;28;20889;-81
2022/02/05 06:57:11;;;;;;;6.30;2.07;;;13.70;56.70;;;;;;5096913;28;20504;-81
2022/02/05 06:59:39;;;;;;;5.87;2.00;;;13.70;56.60;;;;;;5117035;28;20476;-81
2022/02/05 07:02:07;;;;;;;5.30;2.03;;;13.70;56.60;;;;;;5116710;28;20507;-81
2022/02/05 07:04:36;;;;;;;3.60;1.63;;;13.70;56.70;;;;;;5117108;28;20542;-81
2022/02/05 07:07:04;;;;;;;4.57;1.70;;;13.70;56.60;;;;;;5117317;28;20431;-81
2022/02/05 07:09:32;;;;;;;3.57;2.00;;;13.70;56.50;;;;;;5117650;28;20432;-81
2022/02/05 07:12:00;;;;;;;4.27;1.80;;;13.70;56.60;;;;;;5117742;28;20467;-81
2022/02/05 07:14:34;;;;;;;1.80;1.40;;;13.70;56.60;;;;;;5113049;28;20479;-81
2022/02/05 07:17:08;;;;;;;4.47;1.87;;;13.70;56.50;;;;;;5110396;28;20428;-81
2022/02/05 07:19:49;;;;;;;5.07;1.93;;;13.70;56.60;;;;;;5117628;28;20519;-81
2022/02/05 07:22:17;;;;;;;4.43;1.97;;;13.70;56.60;;;;;;5117538;28;20459;-81
2022/02/05 07:29:12;;;;;;;4.80;1.90;;;13.70;56.60;;;;;;5116952;28;21005;-81
2022/02/05 07:30:28;;;;;;;4.73;1.80;;;13.70;56.60;;;;;;5114738;28;20455;-81
2022/02/05 07:32:56;;;;;;;4.10;2.10;;;13.70;56.60;;;;;;5111541;28;20444;-81
2022/02/05 07:35:26;;;;;;;1.80;1.60;;;13.70;56.60;;;;;;5117626;28;20463;-81
2022/02/05 07:37:56;;;;;;;3.93;1.60;;;13.70;56.80;;;;;;5118411;28;20447;-81
2022/02/05 07:40:24;;;;;;;3.00;1.60;;;13.80;56.70;;;;;;5113571;28;20452;-81
2022/02/05 07:42:52;;;;;;;3.60;2.10;;;13.80;56.60;;;;;;5117249;28;20467;-81
2022/02/05 07:45:20;;;;;;;6.93;2.17;;;13.80;56.60;;;;;;5117220;28;20538;-81
2022/02/05 07:47:48;;;;;;;5.13;2.00;;;13.90;56.60;;;;;;5118001;28;20483;-81
2022/02/05 07:50:16;;;;;;;5.93;2.00;;;13.90;56.70;;;;;;5111599;28;20453;-82
2022/02/05 07:52:45;;;;;;;5.77;1.90;;;13.90;56.70;;;;;;5117501;28;20435;-82
2022/02/05 07:55:13;;;;;;;4.93;1.70;;;13.90;56.70;;;;;;5117715;28;20455;-81
2022/02/05 07:57:41;;;;;;;4.10;2.00;;;13.90;56.70;;;;;;5115505;28;20463;-82
2022/02/05 08:00:10;;;;;;;6.47;1.70;;;13.90;56.70;;;;;;5115912;28;20466;-82
2022/02/05 08:02:38;;;;;;;3.10;1.73;;;13.90;56.60;;;;;;5114146;28;20467;-82
2022/02/05 08:05:06;;;;;;;5.80;2.27;;;13.90;56.70;;;;;;5098891;28;20445;-81
2022/02/05 08:07:34;;;;;;;3.70;1.90;;;14.00;56.50;;;;;;5101062;28;20429;-81
2022/02/05 08:10:06;;;;;;;5.17;1.80;;;14.00;56.60;;;;;;5103413;28;20451;-81
2022/02/05 08:12:37;;;;;;;7.40;2.33;;;14.00;56.60;;;;;;5117423;28;20424;-81
2022/02/05 08:15:07;;;;;;;2.93;1.63;;;14.10;56.60;;;;;;5123254;28;20499;-81
2022/02/05 08:17:36;;;;;;;5.03;1.83;;;14.20;56.60;;;;;;5124383;28;20459;-81
2022/02/05 08:20:05;;;;;;;5.43;2.20;;;14.20;56.60;;;;;;5113443;28;20456;-82
2022/02/05 08:22:33;;;;;;;4.30;1.50;;;14.30;56.80;;;;;;5115399;28;20478;-81
2022/02/05 08:25:00;;;;;;;2.33;1.67;;;14.30;56.50;;;;;;5109423;28;20496;-82
2022/02/05 08:27:29;;;;;;;3.10;1.90;;;14.40;56.40;;;;;;5118171;28;20475;-82
2022/02/05 08:30:03;;;;;;;6.13;1.93;;;14.40;56.50;;;;;;5114050;28;20451;-82
2022/02/05 08:32:31;;;;;;;4.67;1.90;;;14.40;56.50;;;;;;5120655;28;20522;-82
2022/02/05 08:35:00;;;;;;;5.83;2.30;;;14.50;56.60;;;;;;5120415;28;20451;-82
2022/02/05 08:37:28;;;;;;;3.40;2.23;;;14.60;56.70;;;;;;5119257;28;20447;-82
2022/02/05 08:39:56;;;;;;;5.30;2.10;;;14.70;56.80;;;;;;5111337;28;20459;-82
2022/02/05 08:42:24;;;;;;;2.90;2.00;;;14.70;56.60;;;;;;5114487;28;20467;-81
2022/02/05 08:44:55;;;;;;;4.30;1.87;;;14.90;56.70;;;;;;5116999;28;20503;-81
2022/02/05 08:47:22;;;;;;;4.43;1.83;;;14.90;56.60;;;;;;5117107;28;20488;-82
2022/02/05 08:49:51;;;;;;;5.60;2.77;;;15.00;56.60;;;;;;5111462;28;20440;-83
2022/02/05 08:52:19;;;;;;;6.97;2.67;;;15.00;56.40;;;;;;5119279;28;20460;-82
2022/02/05 08:54:47;;;;;;;8.80;2.20;;;15.00;56.20;;;;;;5118634;28;20543;-83
2022/02/05 08:57:16;;;;;;;6.60;2.03;;;15.10;56.40;;;;;;5119376;28;20489;-83
2022/02/05 08:59:51;;;;;;;11.20;2.20;;;15.20;56.40;;;;;;5117966;28;20470;-84
2022/02/05 09:02:27;;;;;;;3.57;1.90;;;15.40;56.70;;;;;;5115356;28;20478;-83
2022/02/05 09:05:05;;;;;;;8.17;2.40;;;15.60;56.30;;;;;;5118642;28;20486;-83
2022/02/05 09:07:33;;;;;;;5.50;2.57;;;15.90;56.10;;;;;;5115863;28;20497;-83
2022/02/05 09:10:06;;;;;;;5.87;2.20;;;16.10;55.70;;;;;;5115952;28;20463;-82
2022/02/05 09:12:45;;;;;;;7.47;2.53;;;16.30;55.20;;;;;;5119457;28;20455;-82
2022/02/05 09:15:13;;;;;;;6.70;2.23;;;16.40;55.40;;;;;;5114543;28;20436;-82
2022/02/05 09:17:42;;;;;;;6.10;2.60;;;16.60;55.40;;;;;;5117826;28;20946;-82
2022/02/05 09:20:11;;;;;;;4.07;1.60;;;16.70;55.30;;;;;;5112539;28;21008;-83
2022/02/05 09:22:38;;;;;;;6.03;2.23;;;16.80;55.40;;;;;;5120153;28;20428;-83
2022/02/05 09:25:07;;;;;;;3.60;2.13;;;16.90;55.40;;;;;;5120256;28;20563;-82
2022/02/05 09:27:40;;;;;;;8.23;2.17;;;17.10;55.30;;;;;;5111897;28;20464;-85
2022/02/05 09:30:14;;;;;;;6.10;2.30;;;17.10;55.40;;;;;;5120842;28;20432;-83
2022/02/05 09:32:44;;;;;;;8.57;1.97;;;17.20;55.40;;;;;;5117890;28;20446;-83
2022/02/05 09:35:12;;;;;;;7.60;1.90;;;17.20;55.60;;;;;;5116568;28;20551;-83
2022/02/05 09:37:40;;;;;;;8.67;2.23;;;17.30;55.80;;;;;;5120123;28;20444;-83
2022/02/05 09:40:08;;;;;;;6.10;1.87;;;17.50;56.10;;;;;;5120003;28;20436;-83
2022/02/05 09:42:43;;;;;;;7.33;2.27;;;17.70;55.80;;;;;;5121212;28;20511;-83
2022/02/05 09:45:11;;;;;;;9.00;1.97;;;17.90;55.30;;;;;;5121459;28;20471;-83
2022/02/05 09:47:39;;;;;;;6.87;2.50;;;18.00;55.30;;;;;;5120975;28;20432;-83
2022/02/05 09:50:09;;;;;;;9.37;2.43;;;18.10;55.50;;;;;;5117831;28;20486;-82
2022/02/05 09:52:37;;;;;;;10.97;2.57;;;18.20;55.30;;;;;;5119321;28;20443;-81
2022/02/05 09:55:05;;;;;;;4.27;1.83;;;18.20;55.30;;;;;;5116266;28;20555;-83
2022/02/05 09:57:33;;;;;;;6.00;2.33;;;18.20;55.30;;;;;;5119531;27;20460;-82
2022/02/05 10:00:03;;;;;;;6.63;2.23;;;18.10;55.40;;;;;;5115616;27;20436;-82
2022/02/05 10:02:35;;;;;;;7.40;2.30;;;18.10;55.50;;;;;;5114079;28;20447;-82
2022/02/05 10:05:07;;;;;;;7.13;2.13;;;18.00;55.40;;;;;;5121557;28;20563;-82
2022/02/05 10:07:54;;;;;;;6.47;2.30;;;18.10;55.70;;;;;;5113801;28;20520;-81
2022/02/05 10:10:22;;;;;;;11.13;2.37;;;18.30;55.80;;;;;;5131952;27;20449;-82
2022/02/05 10:13:08;;;;;;;5.90;1.90;;;18.40;55.60;;;;;;5141848;27;20431;-81
2022/02/05 10:15:36;;;;;;;4.17;2.10;;;18.40;55.30;;;;;;5141730;27;20439;-81
2022/02/05 10:18:04;;;;;;;3.93;1.90;;;18.50;55.40;;;;;;5142095;27;20467;-81
2022/02/05 10:20:33;;;;;;;8.53;1.73;;;18.50;55.20;;;;;;5141656;27;20430;-81
2022/02/05 10:23:09;;;;;;;6.07;2.33;;;18.60;55.10;;;;;;5130732;27;20456;-81
2022/02/05 10:25:37;;;;;;;4.77;1.80;;;18.60;55.40;;;;;;5121591;28;20493;-81
2022/02/05 10:28:09;;;;;;;8.30;2.40;;;18.70;55.00;;;;;;5119577;28;20436;-80
2022/02/05 10:30:40;;;;;;;5.20;1.90;;;18.60;55.00;;;;;;5100646;28;20432;-81
2022/02/05 10:33:12;;;;;;;9.63;2.70;;;18.60;55.10;;;;;;5100737;28;20455;-81
2022/02/05 10:35:46;;;;;;;4.77;2.40;;;18.50;54.70;;;;;;5100852;28;20456;-81
2022/02/05 10:38:33;;;;;;;8.90;2.30;;;18.50;54.90;;;;;;5107869;28;20416;-84
2022/02/05 10:43:47;;;;;;;13.67;4.13;;;18.70;54.50;;;;;;5112214;28;20542;-81
2022/02/05 10:46:14;;;;;;;21.47;3.30;;;18.80;52.90;;;;;;5120586;28;20567;-81
2022/02/05 10:48:43;;;;;;;11.00;4.00;;;18.80;53.60;;;;;;5119894;28;20447;-80
2022/02/05 10:51:13;;;;;;;32.13;6.40;;;18.90;52.90;;;;;;5120935;27;20423;-80
2022/02/05 10:53:50;;;;;;;20.83;6.57;;;19.20;54.80;;;;;;5136903;27;20530;-80
2022/02/05 10:56:27;;;;;;;19.33;6.20;;;19.80;53.70;;;;;;5137155;27;20407;-80
2022/02/05 10:59:14;;;;;;;18.37;6.80;;;20.30;52.80;;;;;;5122814;27;20451;-80
2022/02/05 11:07:20;;;;;;;17.33;6.60;;;21.50;51.30;;;;;;5117990;28;20477;-82
2022/02/05 11:09:50;;;;;;;20.90;6.57;;;22.00;50.00;;;;;;5115402;28;20463;-84
2022/02/05 11:15:17;;;;;;;20.70;6.43;;;21.60;49.00;;;;;;5118180;28;20456;-82
2022/02/05 11:20:33;;;;;;;17.63;5.73;;;22.00;49.00;;;;;;5119900;28;20475;-83
2022/02/05 11:23:02;;;;;;;14.53;6.00;;;22.20;49.30;;;;;;5121004;28;20447;-81
2022/02/05 11:25:33;;;;;;;13.70;5.10;;;22.30;49.10;;;;;;5117958;28;20480;-85
2022/02/05 11:28:01;;;;;;;14.47;5.53;;;22.40;48.60;;;;;;5114370;28;20447;-83
2022/02/05 11:30:42;;;;;;;16.00;5.70;;;22.60;49.00;;;;;;5109108;28;20468;-82
2022/02/05 11:33:24;;;;;;;13.33;5.77;;;22.70;48.30;;;;;;5107760;27;20478;-83
2022/02/05 11:36:39;;;;;;;15.90;6.50;;;22.90;48.10;;;;;;5096577;28;20405;-86
2022/02/05 11:39:01;;;;;;;13.60;5.43;;;22.90;48.00;;;;;;5097881;28;20415;-83
2022/02/05 11:41:31;;;;;;;14.50;5.30;;;22.90;48.20;;;;;;5096967;28;20445;-84
2022/02/05 11:44:18;;;;;;;15.43;5.10;;;23.10;48.00;;;;;;5111057;28;20475;-82
2022/02/05 11:47:23;;;;;;;13.40;5.40;;;23.10;48.00;;;;;;5117159;28;20478;-84
2022/02/05 11:50:16;;;;;;;19.90;5.10;;;23.10;47.50;;;;;;5110213;28;20516;-81
2022/02/05 11:53:01;;;;;;;16.93;5.20;;;23.10;47.90;;;;;;5107470;28;20448;-80
2022/02/05 11:55:33;;;;;;;22.03;5.20;;;23.10;48.10;;;;;;5117315;28;20510;-81
2022/02/05 11:58:03;;;;;;;16.47;5.30;;;23.10;48.20;;;;;;5117999;28;20462;-83
2022/02/05 12:00:33;;;;;;;17.30;5.63;;;23.10;48.30;;;;;;5123157;28;20428;-84
2022/02/05 12:03:03;;;;;;;11.97;5.30;;;23.10;48.20;;;;;;5124684;28;20438;-84
2022/02/05 12:05:34;;;;;;;23.60;5.63;;;23.10;48.40;;;;;;5122222;28;20532;-84
2022/02/05 12:08:21;;;;;;;13.80;5.13;;;23.00;48.40;;;;;;5124032;28;20447;-85
2022/02/05 12:10:51;;;;;;;16.80;6.00;;;23.10;48.50;;;;;;5122263;28;20455;-82
2022/02/05 12:13:22;;;;;;;15.60;5.10;;;23.00;48.50;;;;;;5122953;28;20440;-82
2022/02/05 12:16:15;;;;;;;18.83;5.10;;;23.10;49.00;;;;;;5123643;28;20455;-83
2022/02/05 12:18:56;;;;;;;17.53;5.57;;;23.00;48.90;;;;;;5122690;28;20471;-82
2022/02/05 12:21:29;;;;;;;13.80;5.20;;;23.10;48.70;;;;;;5121347;28;20459;-83
2022/02/05 12:27:01;;;;;;;18.93;5.23;;;23.20;48.50;;;;;;5121105;28;20470;-83
2022/02/05 12:29:34;;;;;;;18.40;5.73;;;23.20;48.20;;;;;;5119881;28;20463;-82
2022/02/05 12:32:02;;;;;;;13.40;6.03;;;23.20;48.00;;;;;;5123621;28;20424;-82
2022/02/05 12:34:34;;;;;;;15.93;4.80;;;23.20;48.40;;;;;;5123310;28;20529;-82
2022/02/05 12:37:03;;;;;;;16.43;5.47;;;23.20;48.50;;;;;;5123385;28;20440;-83
2022/02/05 12:39:33;;;;;;;15.97;5.47;;;23.10;48.30;;;;;;5123567;28;20423;-80
2022/02/05 12:42:02;;;;;;;15.87;4.80;;;23.10;48.40;;;;;;5123836;28;20428;-86
2022/02/05 12:44:30;;;;;;;15.70;5.43;;;23.00;48.60;;;;;;5122495;28;20480;-80
2022/02/05 12:47:03;;;;;;;14.13;4.30;;;23.00;48.50;;;;;;5107738;28;20471;-81
2022/02/05 12:49:37;;;;;;;14.83;4.97;;;23.00;48.60;;;;;;5121703;28;20452;-82
2022/02/05 12:52:06;;;;;;;16.87;4.70;;;22.90;48.50;;;;;;5121623;28;20851;-82
2022/02/05 12:54:35;;;;;;;11.20;5.07;;;23.00;48.70;;;;;;5120866;28;20560;-82
2022/02/05 12:57:03;;;;;;;13.17;4.80;;;23.00;48.60;;;;;;5120371;28;20456;-82
2022/02/05 12:59:32;;;;;;;9.90;4.17;;;23.10;49.00;;;;;;5119598;28;20427;-82
2022/02/05 13:02:02;;;;;;;13.17;5.13;;;23.20;48.90;;;;;;5119777;28;20465;-83
2022/02/05 13:04:30;;;;;;;12.23;4.13;;;23.30;48.40;;;;;;5119400;28;20443;-83
2022/02/05 13:07:09;;;;;;;17.07;4.90;;;23.50;48.50;;;;;;5114948;27;20498;-84
2022/02/05 13:09:41;;;;;;;16.03;4.20;;;23.50;47.90;;;;;;5138261;27;20492;-84
2022/02/05 13:12:11;;;;;;;17.13;5.33;;;23.60;48.30;;;;;;5141308;27;20905;-83
2022/02/05 13:14:42;;;;;;;16.63;4.50;;;23.80;48.70;;;;;;5140506;27;20471;-82
2022/02/05 13:17:26;;;;;;;15.60;5.10;;;23.70;48.10;;;;;;5142430;27;20944;-81
2022/02/05 13:20:13;;;;;;;10.33;4.13;;;23.90;48.40;;;;;;5141886;27;20411;-83
2022/02/05 13:25:44;;;;;;;14.37;4.33;;;23.90;47.50;;;;;;5100916;28;21001;-82
2022/02/05 13:28:29;;;;;;;15.73;4.57;;;23.80;47.00;;;;;;5104561;28;20460;-81
2022/02/05 13:33:57;;;;;;;29.80;4.47;;;23.70;47.50;;;;;;5114125;28;20471;-82
2022/02/05 13:36:36;;;;;;;12.00;4.47;;;23.50;48.00;;;;;;5118669;28;20448;-84
2022/02/05 13:39:12;;;;;;;24.03;4.43;;;23.30;47.00;;;;;;5112853;28;20472;-83
2022/02/05 13:41:46;;;;;;;17.63;4.30;;;23.00;47.20;;;;;;5118691;28;20434;-82
2022/02/05 13:44:17;;;;;;;17.27;4.80;;;22.60;47.60;;;;;;5119571;28;20467;-82
2022/02/05 13:47:00;;;;;;;14.40;3.97;;;22.30;48.30;;;;;;5115439;28;20532;-84
2022/02/05 13:49:29;;;;;;;7.27;3.60;;;22.00;48.80;;;;;;5115956;28;20493;-81
2022/02/05 13:52:08;;;;;;;11.30;3.60;;;21.80;49.20;;;;;;5119385;28;20432;-84
2022/02/05 13:54:36;;;;;;;13.33;3.87;;;21.50;49.60;;;;;;5118078;28;20543;-83
2022/02/05 13:57:05;;;;;;;13.50;4.03;;;21.50;50.30;;;;;;5118980;28;20416;-82
2022/02/05 13:59:34;;;;;;;8.97;3.47;;;21.60;50.40;;;;;;5119122;28;20463;-82
2022/02/05 14:02:18;;;;;;;13.03;4.07;;;21.80;50.20;;;;;;5119287;28;20432;-81
2022/02/05 14:05:09;;;;;;;9.83;3.47;;;21.80;49.90;;;;;;5118374;28;20475;-82
2022/02/05 14:07:44;;;;;;;13.23;3.93;;;21.80;49.90;;;;;;5118657;28;20551;-82
2022/02/05 14:10:13;;;;;;;11.90;3.53;;;21.80;49.60;;;;;;5118589;28;20471;-82
2022/02/05 14:12:50;;;;;;;11.03;3.43;;;21.70;49.60;;;;;;5119424;27;20447;-82
2022/02/05 14:15:18;;;;;;;7.70;3.40;;;21.90;50.00;;;;;;5115593;28;20458;-82
2022/02/05 14:17:47;;;;;;;14.80;3.77;;;21.90;49.60;;;;;;5111475;28;20424;-82
2022/02/05 14:20:17;;;;;;;9.37;3.43;;;21.80;49.30;;;;;;5113409;28;20435;-82
2022/02/05 14:22:49;;;;;;;7.00;3.13;;;21.60;49.50;;;;;;5114365;28;20444;-82
2022/02/05 14:25:21;;;;;;;7.73;3.27;;;21.30;49.50;;;;;;5117987;28;20498;-82
2022/02/05 14:28:11;;;;;;;18.10;3.73;;;21.20;49.80;;;;;;5117384;28;20460;-82
2022/02/05 14:30:42;;;;;;;11.70;3.10;;;21.00;49.90;;;;;;5118738;28;20432;-82
2022/02/05 14:33:14;;;;;;;8.27;3.20;;;20.90;50.20;;;;;;5118194;28;20410;-82
2022/02/05 14:36:01;;;;;;;9.50;3.30;;;20.80;50.10;;;;;;5118500;28;20498;-82
2022/02/05 14:41:15;;;;;;;10.50;2.83;;;20.50;50.10;;;;;;5117971;28;20416;-81
2022/02/05 14:43:42;;;;;;;8.80;3.27;;;20.30;50.30;;;;;;5117329;28;20434;-81
2022/02/05 14:46:10;;;;;;;8.60;3.33;;;20.20;50.50;;;;;;5106635;28;20455;-81
2022/02/05 14:48:38;;;;;;;10.53;2.87;;;20.00;50.70;;;;;;5118227;28;20436;-81